sensor_id;sensor_type;location;lat;lon;timestamp;temperature;humidity
19622;DHT22;9958;33.196;-97.114;2023-12-20T00:00:54;12.20;88.60
19622;DHT22;9958;33.196;-97.114;2023-12-20T00:03:22;12.10;89.00
19622;DHT22;9958;33.196;-97.114;2023-12-20T00:05:51;12.10;89.50
19622;DHT22;9958;33.196;-97.114;2023-12-20T00:08:19;12.00;89.90
19622;DHT22;9958;33.196;-97.114;2023-12-20T00:10:47;12.00;90.10
19622;DHT22;9958;33.196;-97.114;2023-12-20T00:13:16;11.90;90.40
19622;DHT22;9958;33.196;-97.114;2023-12-20T00:15:45;11.90;90.50
19622;DHT22;9958;33.196;-97.114;2023-12-20T00:18:14;11.90;90.70
19622;DHT22;9958;33.196;-97.114;2023-12-20T00:20:42;11.80;90.90
19622;DHT22;9958;33.196;-97.114;2023-12-20T00:23:10;11.80;91.20
19622;DHT22;9958;33.196;-97.114;2023-12-20T00:25:39;11.80;91.30
19622;DHT22;9958;33.196;-97.114;2023-12-20T00:28:07;11.70;91.40
19622;DHT22;9958;33.196;-97.114;2023-12-20T00:30:35;11.70;91.40
19622;DHT22;9958;33.196;-97.114;2023-12-20T00:33:05;11.70;91.70
19622;DHT22;9958;33.196;-97.114;2023-12-20T00:35:34;11.60;91.70
19622;DHT22;9958;33.196;-97.114;2023-12-20T00:38:02;11.60;91.90
19622;DHT22;9958;33.196;-97.114;2023-12-20T00:40:31;11.50;91.80
19622;DHT22;9958;33.196;-97.114;2023-12-20T00:42:59;11.50;92.00
19622;DHT22;9958;33.196;-97.114;2023-12-20T00:45:28;11.50;92.10
19622;DHT22;9958;33.196;-97.114;2023-12-20T00:47:56;11.40;92.10
19622;DHT22;9958;33.196;-97.114;2023-12-20T00:50:27;11.40;92.10
19622;DHT22;9958;33.196;-97.114;2023-12-20T00:52:55;11.40;92.10
19622;DHT22;9958;33.196;-97.114;2023-12-20T00:55:23;11.30;92.20
19622;DHT22;9958;33.196;-97.114;2023-12-20T00:57:52;11.30;92.40
19622;DHT22;9958;33.196;-97.114;2023-12-20T01:00:20;11.30;92.50
19622;DHT22;9958;33.196;-97.114;2023-12-20T01:02:49;11.20;92.10
19622;DHT22;9958;33.196;-97.114;2023-12-20T01:05:18;11.20;92.50
19622;DHT22;9958;33.196;-97.114;2023-12-20T01:07:51;11.20;92.10
19622;DHT22;9958;33.196;-97.114;2023-12-20T01:10:19;11.20;92.20
19622;DHT22;9958;33.196;-97.114;2023-12-20T01:12:48;11.20;92.20
19622;DHT22;9958;33.196;-97.114;2023-12-20T01:15:16;11.20;92.20
19622;DHT22;9958;33.196;-97.114;2023-12-20T01:17:45;11.20;92.20
19622;DHT22;9958;33.196;-97.114;2023-12-20T01:20:14;11.30;92.30
19622;DHT22;9958;33.196;-97.114;2023-12-20T01:22:43;11.30;92.40
19622;DHT22;9958;33.196;-97.114;2023-12-20T01:25:14;11.20;92.30
19622;DHT22;9958;33.196;-97.114;2023-12-20T01:27:42;11.30;92.30
19622;DHT22;9958;33.196;-97.114;2023-12-20T01:30:11;11.30;92.40
19622;DHT22;9958;33.196;-97.114;2023-12-20T01:32:39;11.30;92.60
19622;DHT22;9958;33.196;-97.114;2023-12-20T01:35:08;11.30;92.60
19622;DHT22;9958;33.196;-97.114;2023-12-20T01:37:36;11.20;92.60
19622;DHT22;9958;33.196;-97.114;2023-12-20T01:40:04;11.20;92.60
19622;DHT22;9958;33.196;-97.114;2023-12-20T01:42:34;11.20;92.70
19622;DHT22;9958;33.196;-97.114;2023-12-20T01:45:03;11.20;92.80
19622;DHT22;9958;33.196;-97.114;2023-12-20T01:47:31;11.20;93.10
19622;DHT22;9958;33.196;-97.114;2023-12-20T01:49:59;11.10;93.00
19622;DHT22;9958;33.196;-97.114;2023-12-20T01:52:30;11.10;92.90
19622;DHT22;9958;33.196;-97.114;2023-12-20T01:55:00;11.00;92.90
19622;DHT22;9958;33.196;-97.114;2023-12-20T01:57:31;11.00;93.10
19622;DHT22;9958;33.196;-97.114;2023-12-20T02:00:01;11.00;93.20
19622;DHT22;9958;33.196;-97.114;2023-12-20T02:02:30;10.90;93.20
19622;DHT22;9958;33.196;-97.114;2023-12-20T02:04:58;10.90;93.20
19622;DHT22;9958;33.196;-97.114;2023-12-20T02:07:29;10.80;93.10
19622;DHT22;9958;33.196;-97.114;2023-12-20T02:09:59;10.70;93.30
19622;DHT22;9958;33.196;-97.114;2023-12-20T02:12:27;10.70;93.30
19622;DHT22;9958;33.196;-97.114;2023-12-20T02:14:56;10.60;93.30
19622;DHT22;9958;33.196;-97.114;2023-12-20T02:17:26;10.60;93.40
19622;DHT22;9958;33.196;-97.114;2023-12-20T02:19:55;10.50;93.30
19622;DHT22;9958;33.196;-97.114;2023-12-20T02:22:25;10.50;93.60
19622;DHT22;9958;33.196;-97.114;2023-12-20T02:24:53;10.40;93.70
19622;DHT22;9958;33.196;-97.114;2023-12-20T02:27:22;10.40;93.80
19622;DHT22;9958;33.196;-97.114;2023-12-20T02:29:51;10.30;93.90
19622;DHT22;9958;33.196;-97.114;2023-12-20T02:32:20;10.20;94.50
19622;DHT22;9958;33.196;-97.114;2023-12-20T02:34:49;10.20;94.40
19622;DHT22;9958;33.196;-97.114;2023-12-20T02:37:17;10.10;94.50
19622;DHT22;9958;33.196;-97.114;2023-12-20T02:39:47;10.10;94.70
19622;DHT22;9958;33.196;-97.114;2023-12-20T02:42:15;10.00;94.80
19622;DHT22;9958;33.196;-97.114;2023-12-20T02:44:44;9.90;95.40
19622;DHT22;9958;33.196;-97.114;2023-12-20T02:47:12;9.90;95.40
19622;DHT22;9958;33.196;-97.114;2023-12-20T02:49:40;9.80;95.40
19622;DHT22;9958;33.196;-97.114;2023-12-20T02:52:09;9.80;95.50
19622;DHT22;9958;33.196;-97.114;2023-12-20T02:54:37;9.80;95.50
19622;DHT22;9958;33.196;-97.114;2023-12-20T02:57:07;9.80;95.30
19622;DHT22;9958;33.196;-97.114;2023-12-20T02:59:35;9.90;95.40
19622;DHT22;9958;33.196;-97.114;2023-12-20T03:02:04;9.90;95.30
19622;DHT22;9958;33.196;-97.114;2023-12-20T03:04:32;10.00;94.60
19622;DHT22;9958;33.196;-97.114;2023-12-20T03:07:00;10.00;94.50
19622;DHT22;9958;33.196;-97.114;2023-12-20T03:09:29;10.10;94.50
19622;DHT22;9958;33.196;-97.114;2023-12-20T03:11:57;10.20;94.40
19622;DHT22;9958;33.196;-97.114;2023-12-20T03:14:27;10.20;94.40
19622;DHT22;9958;33.196;-97.114;2023-12-20T03:16:55;10.30;94.20
19622;DHT22;9958;33.196;-97.114;2023-12-20T03:19:24;10.30;93.80
19622;DHT22;9958;33.196;-97.114;2023-12-20T03:21:52;10.40;93.60
19622;DHT22;9958;33.196;-97.114;2023-12-20T03:24:20;10.50;93.70
19622;DHT22;9958;33.196;-97.114;2023-12-20T03:26:49;10.50;93.50
19622;DHT22;9958;33.196;-97.114;2023-12-20T03:29:17;10.60;93.40
19622;DHT22;9958;33.196;-97.114;2023-12-20T03:31:47;10.60;93.40
19622;DHT22;9958;33.196;-97.114;2023-12-20T03:34:15;10.60;93.40
19622;DHT22;9958;33.196;-97.114;2023-12-20T03:36:44;10.70;93.40
19622;DHT22;9958;33.196;-97.114;2023-12-20T03:39:14;10.70;93.30
19622;DHT22;9958;33.196;-97.114;2023-12-20T03:41:42;10.70;93.10
19622;DHT22;9958;33.196;-97.114;2023-12-20T03:44:10;10.80;93.00
19622;DHT22;9958;33.196;-97.114;2023-12-20T03:46:39;10.80;93.10
19622;DHT22;9958;33.196;-97.114;2023-12-20T03:49:09;10.80;93.10
19622;DHT22;9958;33.196;-97.114;2023-12-20T03:51:37;10.90;93.40
19622;DHT22;9958;33.196;-97.114;2023-12-20T03:54:05;10.80;93.10
19622;DHT22;9958;33.196;-97.114;2023-12-20T03:56:34;10.90;93.20
19622;DHT22;9958;33.196;-97.114;2023-12-20T03:59:02;10.90;93.40
19622;DHT22;9958;33.196;-97.114;2023-12-20T04:01:30;10.90;93.30
19622;DHT22;9958;33.196;-97.114;2023-12-20T04:03:59;10.90;93.30
19622;DHT22;9958;33.196;-97.114;2023-12-20T04:06:29;10.90;93.50
19622;DHT22;9958;33.196;-97.114;2023-12-20T04:08:57;10.90;93.50
19622;DHT22;9958;33.196;-97.114;2023-12-20T04:11:25;10.90;93.50
19622;DHT22;9958;33.196;-97.114;2023-12-20T04:13:54;10.90;93.50
19622;DHT22;9958;33.196;-97.114;2023-12-20T04:16:22;10.90;93.50
19622;DHT22;9958;33.196;-97.114;2023-12-20T04:18:50;10.90;93.70
19622;DHT22;9958;33.196;-97.114;2023-12-20T04:21:18;10.80;93.60
19622;DHT22;9958;33.196;-97.114;2023-12-20T04:23:48;10.80;93.80
19622;DHT22;9958;33.196;-97.114;2023-12-20T04:26:17;10.80;94.00
19622;DHT22;9958;33.196;-97.114;2023-12-20T04:28:45;10.80;94.10
19622;DHT22;9958;33.196;-97.114;2023-12-20T04:31:13;10.70;94.10
19622;DHT22;9958;33.196;-97.114;2023-12-20T04:33:42;10.70;94.20
19622;DHT22;9958;33.196;-97.114;2023-12-20T04:36:10;10.70;94.40
19622;DHT22;9958;33.196;-97.114;2023-12-20T04:38:38;10.70;94.60
19622;DHT22;9958;33.196;-97.114;2023-12-20T04:41:08;10.60;94.60
19622;DHT22;9958;33.196;-97.114;2023-12-20T04:43:36;10.60;94.70
19622;DHT22;9958;33.196;-97.114;2023-12-20T04:46:05;10.60;94.80
19622;DHT22;9958;33.196;-97.114;2023-12-20T04:48:33;10.60;95.00
19622;DHT22;9958;33.196;-97.114;2023-12-20T04:51:02;10.60;95.10
19622;DHT22;9958;33.196;-97.114;2023-12-20T04:53:30;10.60;95.20
19622;DHT22;9958;33.196;-97.114;2023-12-20T04:55:58;10.50;95.20
19622;DHT22;9958;33.196;-97.114;2023-12-20T04:58:30;10.50;95.30
19622;DHT22;9958;33.196;-97.114;2023-12-20T05:00:59;10.50;95.40
19622;DHT22;9958;33.196;-97.114;2023-12-20T05:03:27;10.40;95.60
19622;DHT22;9958;33.196;-97.114;2023-12-20T05:05:55;10.40;95.70
19622;DHT22;9958;33.196;-97.114;2023-12-20T05:08:24;10.40;95.70
19622;DHT22;9958;33.196;-97.114;2023-12-20T05:10:54;10.40;95.90
19622;DHT22;9958;33.196;-97.114;2023-12-20T05:13:22;10.40;96.00
19622;DHT22;9958;33.196;-97.114;2023-12-20T05:15:52;10.30;96.20
19622;DHT22;9958;33.196;-97.114;2023-12-20T05:18:21;10.30;96.40
19622;DHT22;9958;33.196;-97.114;2023-12-20T05:20:49;10.30;96.50
19622;DHT22;9958;33.196;-97.114;2023-12-20T05:23:18;10.20;96.70
19622;DHT22;9958;33.196;-97.114;2023-12-20T05:25:46;10.20;96.80
19622;DHT22;9958;33.196;-97.114;2023-12-20T05:28:16;10.20;96.90
19622;DHT22;9958;33.196;-97.114;2023-12-20T05:30:44;10.10;97.10
19622;DHT22;9958;33.196;-97.114;2023-12-20T05:33:14;10.10;97.20
19622;DHT22;9958;33.196;-97.114;2023-12-20T05:35:42;10.10;97.40
19622;DHT22;9958;33.196;-97.114;2023-12-20T05:38:10;10.10;97.70
19622;DHT22;9958;33.196;-97.114;2023-12-20T05:40:39;10.00;97.80
19622;DHT22;9958;33.196;-97.114;2023-12-20T05:43:08;10.00;97.90
19622;DHT22;9958;33.196;-97.114;2023-12-20T05:45:36;10.00;98.10
19622;DHT22;9958;33.196;-97.114;2023-12-20T05:48:05;9.90;98.80
19622;DHT22;9958;33.196;-97.114;2023-12-20T05:50:35;9.90;99.00
19622;DHT22;9958;33.196;-97.114;2023-12-20T05:53:03;9.90;99.10
19622;DHT22;9958;33.196;-97.114;2023-12-20T05:55:32;9.90;99.30
19622;DHT22;9958;33.196;-97.114;2023-12-20T05:58:00;9.80;99.60
19622;DHT22;9958;33.196;-97.114;2023-12-20T06:00:29;9.80;99.60
19622;DHT22;9958;33.196;-97.114;2023-12-20T06:02:57;9.80;99.80
19622;DHT22;9958;33.196;-97.114;2023-12-20T06:05:26;9.80;99.90
19622;DHT22;9958;33.196;-97.114;2023-12-20T06:07:55;9.70;99.90
19622;DHT22;9958;33.196;-97.114;2023-12-20T06:10:27;9.70;99.90
19622;DHT22;9958;33.196;-97.114;2023-12-20T06:12:56;9.70;99.90
19622;DHT22;9958;33.196;-97.114;2023-12-20T06:15:25;9.70;99.90
19622;DHT22;9958;33.196;-97.114;2023-12-20T06:17:53;9.70;99.90
19622;DHT22;9958;33.196;-97.114;2023-12-20T06:20:21;9.70;99.90
19622;DHT22;9958;33.196;-97.114;2023-12-20T06:22:50;9.60;99.90
19622;DHT22;9958;33.196;-97.114;2023-12-20T06:25:20;9.60;99.90
19622;DHT22;9958;33.196;-97.114;2023-12-20T06:27:48;9.60;99.90
19622;DHT22;9958;33.196;-97.114;2023-12-20T06:30:16;9.60;99.90
19622;DHT22;9958;33.196;-97.114;2023-12-20T06:32:45;9.60;99.90
19622;DHT22;9958;33.196;-97.114;2023-12-20T06:35:14;9.60;99.90
19622;DHT22;9958;33.196;-97.114;2023-12-20T06:37:42;9.60;99.90
19622;DHT22;9958;33.196;-97.114;2023-12-20T06:40:11;9.50;99.90
19622;DHT22;9958;33.196;-97.114;2023-12-20T06:42:41;9.50;99.90
19622;DHT22;9958;33.196;-97.114;2023-12-20T06:45:10;9.50;99.90
19622;DHT22;9958;33.196;-97.114;2023-12-20T06:47:38;9.50;99.90
19622;DHT22;9958;33.196;-97.114;2023-12-20T06:50:07;9.50;99.90
19622;DHT22;9958;33.196;-97.114;2023-12-20T06:52:35;9.50;99.90
19622;DHT22;9958;33.196;-97.114;2023-12-20T06:55:04;9.50;99.90
19622;DHT22;9958;33.196;-97.114;2023-12-20T06:57:33;9.50;99.90
19622;DHT22;9958;33.196;-97.114;2023-12-20T07:00:05;9.50;99.90
19622;DHT22;9958;33.196;-97.114;2023-12-20T07:02:34;9.50;99.90
19622;DHT22;9958;33.196;-97.114;2023-12-20T07:05:03;9.50;99.90
19622;DHT22;9958;33.196;-97.114;2023-12-20T07:07:32;9.50;99.90
19622;DHT22;9958;33.196;-97.114;2023-12-20T07:10:01;9.50;99.90
19622;DHT22;9958;33.196;-97.114;2023-12-20T07:12:29;9.50;99.90
19622;DHT22;9958;33.196;-97.114;2023-12-20T07:14:58;9.50;99.90
19622;DHT22;9958;33.196;-97.114;2023-12-20T07:17:27;9.50;99.90
19622;DHT22;9958;33.196;-97.114;2023-12-20T07:19:56;9.50;99.90
19622;DHT22;9958;33.196;-97.114;2023-12-20T07:22:24;9.50;99.90
19622;DHT22;9958;33.196;-97.114;2023-12-20T07:24:52;9.50;99.90
19622;DHT22;9958;33.196;-97.114;2023-12-20T07:27:21;9.50;99.90
19622;DHT22;9958;33.196;-97.114;2023-12-20T07:29:49;9.50;99.90
19622;DHT22;9958;33.196;-97.114;2023-12-20T07:32:17;9.50;99.90
19622;DHT22;9958;33.196;-97.114;2023-12-20T07:34:47;9.50;99.90
19622;DHT22;9958;33.196;-97.114;2023-12-20T07:37:16;9.50;99.90
19622;DHT22;9958;33.196;-97.114;2023-12-20T07:39:44;9.50;99.90
19622;DHT22;9958;33.196;-97.114;2023-12-20T07:42:12;9.50;99.90
19622;DHT22;9958;33.196;-97.114;2023-12-20T07:44:40;9.50;99.90
19622;DHT22;9958;33.196;-97.114;2023-12-20T07:47:09;9.50;99.90
19622;DHT22;9958;33.196;-97.114;2023-12-20T07:49:38;9.50;99.90
19622;DHT22;9958;33.196;-97.114;2023-12-20T07:52:08;9.50;99.90
19622;DHT22;9958;33.196;-97.114;2023-12-20T07:54:36;9.60;99.90
19622;DHT22;9958;33.196;-97.114;2023-12-20T07:57:05;9.60;99.90
19622;DHT22;9958;33.196;-97.114;2023-12-20T07:59:33;9.60;99.90
19622;DHT22;9958;33.196;-97.114;2023-12-20T08:02:01;9.60;99.90
19622;DHT22;9958;33.196;-97.114;2023-12-20T08:04:30;9.60;99.90
19622;DHT22;9958;33.196;-97.114;2023-12-20T08:06:59;9.60;99.90
19622;DHT22;9958;33.196;-97.114;2023-12-20T08:09:29;9.60;99.90
19622;DHT22;9958;33.196;-97.114;2023-12-20T08:11:58;9.60;99.90
19622;DHT22;9958;33.196;-97.114;2023-12-20T08:14:26;9.60;99.90
19622;DHT22;9958;33.196;-97.114;2023-12-20T08:16:54;9.60;99.90
19622;DHT22;9958;33.196;-97.114;2023-12-20T08:19:23;9.60;99.90
19622;DHT22;9958;33.196;-97.114;2023-12-20T08:21:51;9.60;99.90
19622;DHT22;9958;33.196;-97.114;2023-12-20T08:24:19;9.60;99.90
19622;DHT22;9958;33.196;-97.114;2023-12-20T08:26:49;9.60;99.90
19622;DHT22;9958;33.196;-97.114;2023-12-20T08:29:18;9.60;99.90
19622;DHT22;9958;33.196;-97.114;2023-12-20T08:31:45;9.60;99.90
19622;DHT22;9958;33.196;-97.114;2023-12-20T08:34:13;9.60;99.90
19622;DHT22;9958;33.196;-97.114;2023-12-20T08:36:41;9.60;99.90
19622;DHT22;9958;33.196;-97.114;2023-12-20T08:39:10;9.60;99.90
19622;DHT22;9958;33.196;-97.114;2023-12-20T08:41:38;9.60;99.90
19622;DHT22;9958;33.196;-97.114;2023-12-20T08:44:08;9.60;99.90
19622;DHT22;9958;33.196;-97.114;2023-12-20T08:46:36;9.50;99.90
19622;DHT22;9958;33.196;-97.114;2023-12-20T08:49:05;9.50;99.90
19622;DHT22;9958;33.196;-97.114;2023-12-20T08:51:33;9.50;99.90
19622;DHT22;9958;33.196;-97.114;2023-12-20T08:54:02;9.50;99.90
19622;DHT22;9958;33.196;-97.114;2023-12-20T08:56:34;9.50;99.90
19622;DHT22;9958;33.196;-97.114;2023-12-20T08:59:02;9.40;99.90
19622;DHT22;9958;33.196;-97.114;2023-12-20T09:01:32;9.40;99.90
19622;DHT22;9958;33.196;-97.114;2023-12-20T09:04:00;9.40;99.90
19622;DHT22;9958;33.196;-97.114;2023-12-20T09:06:29;9.40;99.90
19622;DHT22;9958;33.196;-97.114;2023-12-20T09:08:57;9.40;99.90
19622;DHT22;9958;33.196;-97.114;2023-12-20T09:11:25;9.40;99.90
19622;DHT22;9958;33.196;-97.114;2023-12-20T09:13:54;9.40;99.90
19622;DHT22;9958;33.196;-97.114;2023-12-20T09:16:22;9.40;99.90
19622;DHT22;9958;33.196;-97.114;2023-12-20T09:18:52;9.30;99.90
19622;DHT22;9958;33.196;-97.114;2023-12-20T09:21:20;9.30;99.90
19622;DHT22;9958;33.196;-97.114;2023-12-20T09:23:48;9.30;99.90
19622;DHT22;9958;33.196;-97.114;2023-12-20T09:26:17;9.30;99.90
19622;DHT22;9958;33.196;-97.114;2023-12-20T09:28:45;9.30;99.90
19622;DHT22;9958;33.196;-97.114;2023-12-20T09:31:14;9.30;99.90
19622;DHT22;9958;33.196;-97.114;2023-12-20T09:33:42;9.30;99.90
19622;DHT22;9958;33.196;-97.114;2023-12-20T09:36:12;9.30;99.90
19622;DHT22;9958;33.196;-97.114;2023-12-20T09:38:40;9.20;99.90
19622;DHT22;9958;33.196;-97.114;2023-12-20T09:41:09;9.20;99.90
19622;DHT22;9958;33.196;-97.114;2023-12-20T09:43:38;9.20;99.90
19622;DHT22;9958;33.196;-97.114;2023-12-20T09:46:10;9.20;99.90
19622;DHT22;9958;33.196;-97.114;2023-12-20T09:48:41;9.20;99.90
19622;DHT22;9958;33.196;-97.114;2023-12-20T09:51:13;9.20;99.90
19622;DHT22;9958;33.196;-97.114;2023-12-20T09:53:41;9.20;99.90
19622;DHT22;9958;33.196;-97.114;2023-12-20T09:56:11;9.20;99.90
19622;DHT22;9958;33.196;-97.114;2023-12-20T09:58:40;9.10;99.90
19622;DHT22;9958;33.196;-97.114;2023-12-20T10:01:08;9.10;99.90
19622;DHT22;9958;33.196;-97.114;2023-12-20T10:03:39;9.10;99.90
19622;DHT22;9958;33.196;-97.114;2023-12-20T10:06:10;9.10;99.90
19622;DHT22;9958;33.196;-97.114;2023-12-20T10:08:39;9.10;99.90
19622;DHT22;9958;33.196;-97.114;2023-12-20T10:11:07;9.10;99.90
19622;DHT22;9958;33.196;-97.114;2023-12-20T10:13:39;9.10;99.90
19622;DHT22;9958;33.196;-97.114;2023-12-20T10:16:08;9.00;99.90
19622;DHT22;9958;33.196;-97.114;2023-12-20T10:18:37;9.10;99.90
19622;DHT22;9958;33.196;-97.114;2023-12-20T10:21:05;9.00;99.90
19622;DHT22;9958;33.196;-97.114;2023-12-20T10:23:35;9.00;99.90
19622;DHT22;9958;33.196;-97.114;2023-12-20T10:26:05;9.00;99.90
19622;DHT22;9958;33.196;-97.114;2023-12-20T10:28:34;9.00;99.90
19622;DHT22;9958;33.196;-97.114;2023-12-20T10:31:03;9.00;99.90
19622;DHT22;9958;33.196;-97.114;2023-12-20T10:33:32;9.00;99.90
19622;DHT22;9958;33.196;-97.114;2023-12-20T10:36:00;8.90;99.90
19622;DHT22;9958;33.196;-97.114;2023-12-20T10:38:29;9.00;99.90
19622;DHT22;9958;33.196;-97.114;2023-12-20T10:40:59;8.90;99.90
19622;DHT22;9958;33.196;-97.114;2023-12-20T10:43:31;8.90;99.90
19622;DHT22;9958;33.196;-97.114;2023-12-20T10:46:01;8.90;99.90
19622;DHT22;9958;33.196;-97.114;2023-12-20T10:48:31;8.90;99.90
19622;DHT22;9958;33.196;-97.114;2023-12-20T10:51:01;8.90;99.90
19622;DHT22;9958;33.196;-97.114;2023-12-20T10:53:30;8.80;99.90
19622;DHT22;9958;33.196;-97.114;2023-12-20T10:56:01;8.80;99.90
19622;DHT22;9958;33.196;-97.114;2023-12-20T10:58:32;8.80;99.90
19622;DHT22;9958;33.196;-97.114;2023-12-20T11:01:01;8.80;99.90
19622;DHT22;9958;33.196;-97.114;2023-12-20T11:03:34;8.80;99.90
19622;DHT22;9958;33.196;-97.114;2023-12-20T11:06:07;8.80;99.90
19622;DHT22;9958;33.196;-97.114;2023-12-20T11:08:43;8.80;99.90
19622;DHT22;9958;33.196;-97.114;2023-12-20T11:11:20;8.80;99.90
19622;DHT22;9958;33.196;-97.114;2023-12-20T11:13:56;8.80;99.90
19622;DHT22;9958;33.196;-97.114;2023-12-20T11:16:25;8.80;99.90
19622;DHT22;9958;33.196;-97.114;2023-12-20T11:18:53;8.80;99.90
19622;DHT22;9958;33.196;-97.114;2023-12-20T11:21:22;8.80;99.90
19622;DHT22;9958;33.196;-97.114;2023-12-20T11:23:50;8.80;99.90
19622;DHT22;9958;33.196;-97.114;2023-12-20T11:26:23;8.80;99.90
19622;DHT22;9958;33.196;-97.114;2023-12-20T11:28:54;8.80;99.90
19622;DHT22;9958;33.196;-97.114;2023-12-20T11:31:22;8.80;99.90
19622;DHT22;9958;33.196;-97.114;2023-12-20T11:33:51;8.80;99.90
19622;DHT22;9958;33.196;-97.114;2023-12-20T11:36:26;8.80;99.90
19622;DHT22;9958;33.196;-97.114;2023-12-20T11:38:57;8.80;99.90
19622;DHT22;9958;33.196;-97.114;2023-12-20T11:41:27;8.80;99.90
19622;DHT22;9958;33.196;-97.114;2023-12-20T11:43:56;8.80;99.90
19622;DHT22;9958;33.196;-97.114;2023-12-20T11:46:24;8.70;99.90
19622;DHT22;9958;33.196;-97.114;2023-12-20T11:48:54;8.70;99.90
19622;DHT22;9958;33.196;-97.114;2023-12-20T11:51:22;8.70;99.90
19622;DHT22;9958;33.196;-97.114;2023-12-20T11:53:52;8.70;99.90
19622;DHT22;9958;33.196;-97.114;2023-12-20T11:56:20;8.70;99.90
19622;DHT22;9958;33.196;-97.114;2023-12-20T11:58:51;8.70;99.90
19622;DHT22;9958;33.196;-97.114;2023-12-20T12:01:20;8.70;99.90
19622;DHT22;9958;33.196;-97.114;2023-12-20T12:03:49;8.60;99.90
19622;DHT22;9958;33.196;-97.114;2023-12-20T12:06:30;8.60;99.90
19622;DHT22;9958;33.196;-97.114;2023-12-20T12:08:58;8.60;99.90
19622;DHT22;9958;33.196;-97.114;2023-12-20T12:11:26;8.60;99.90
19622;DHT22;9958;33.196;-97.114;2023-12-20T12:13:56;8.50;99.90
19622;DHT22;9958;33.196;-97.114;2023-12-20T12:16:25;8.50;99.90
19622;DHT22;9958;33.196;-97.114;2023-12-20T12:18:57;8.50;99.90
19622;DHT22;9958;33.196;-97.114;2023-12-20T12:21:25;8.50;99.90
19622;DHT22;9958;33.196;-97.114;2023-12-20T12:23:54;8.50;99.90
19622;DHT22;9958;33.196;-97.114;2023-12-20T12:26:25;8.50;99.90
19622;DHT22;9958;33.196;-97.114;2023-12-20T12:28:55;8.50;99.90
19622;DHT22;9958;33.196;-97.114;2023-12-20T12:31:23;8.50;99.90
19622;DHT22;9958;33.196;-97.114;2023-12-20T12:33:53;8.50;99.90
19622;DHT22;9958;33.196;-97.114;2023-12-20T12:36:21;8.50;99.90
19622;DHT22;9958;33.196;-97.114;2023-12-20T12:38:50;8.60;99.90
19622;DHT22;9958;33.196;-97.114;2023-12-20T12:41:18;8.60;99.90
19622;DHT22;9958;33.196;-97.114;2023-12-20T12:43:46;8.50;99.90
19622;DHT22;9958;33.196;-97.114;2023-12-20T12:46:16;8.60;99.90
19622;DHT22;9958;33.196;-97.114;2023-12-20T12:48:45;8.60;99.90
19622;DHT22;9958;33.196;-97.114;2023-12-20T12:51:13;8.60;99.90
19622;DHT22;9958;33.196;-97.114;2023-12-20T12:53:42;8.60;99.90
19622;DHT22;9958;33.196;-97.114;2023-12-20T12:56:10;8.60;99.90
19622;DHT22;9958;33.196;-97.114;2023-12-20T12:58:40;8.60;99.90
19622;DHT22;9958;33.196;-97.114;2023-12-20T13:01:09;8.70;99.90
19622;DHT22;9958;33.196;-97.114;2023-12-20T13:03:38;8.70;99.90
19622;DHT22;9958;33.196;-97.114;2023-12-20T13:06:07;8.70;99.90
19622;DHT22;9958;33.196;-97.114;2023-12-20T13:08:35;8.80;99.90
19622;DHT22;9958;33.196;-97.114;2023-12-20T13:11:04;8.80;99.90
19622;DHT22;9958;33.196;-97.114;2023-12-20T13:13:32;8.80;99.90
19622;DHT22;9958;33.196;-97.114;2023-12-20T13:16:01;8.80;99.90
19622;DHT22;9958;33.196;-97.114;2023-12-20T13:18:29;8.90;99.90
19622;DHT22;9958;33.196;-97.114;2023-12-20T13:20:59;8.90;99.90
19622;DHT22;9958;33.196;-97.114;2023-12-20T13:23:27;8.90;99.90
19622;DHT22;9958;33.196;-97.114;2023-12-20T13:25:55;8.90;99.90
19622;DHT22;9958;33.196;-97.114;2023-12-20T13:28:24;8.90;99.90
19622;DHT22;9958;33.196;-97.114;2023-12-20T13:30:53;9.00;99.90
19622;DHT22;9958;33.196;-97.114;2023-12-20T13:33:21;9.00;99.90
19622;DHT22;9958;33.196;-97.114;2023-12-20T13:35:49;9.00;99.90
19622;DHT22;9958;33.196;-97.114;2023-12-20T13:38:19;9.10;99.90
19622;DHT22;9958;33.196;-97.114;2023-12-20T13:40:47;9.10;99.90
19622;DHT22;9958;33.196;-97.114;2023-12-20T13:43:16;9.10;99.90
19622;DHT22;9958;33.196;-97.114;2023-12-20T13:45:47;9.10;99.90
19622;DHT22;9958;33.196;-97.114;2023-12-20T13:48:15;9.10;99.90
19622;DHT22;9958;33.196;-97.114;2023-12-20T13:50:43;9.10;99.90
19622;DHT22;9958;33.196;-97.114;2023-12-20T13:53:12;9.20;99.90
19622;DHT22;9958;33.196;-97.114;2023-12-20T13:55:42;9.20;99.90
19622;DHT22;9958;33.196;-97.114;2023-12-20T13:58:10;9.20;99.90
19622;DHT22;9958;33.196;-97.114;2023-12-20T14:00:39;9.30;99.90
19622;DHT22;9958;33.196;-97.114;2023-12-20T14:03:08;9.30;99.90
19622;DHT22;9958;33.196;-97.114;2023-12-20T14:05:36;9.40;99.90
19622;DHT22;9958;33.196;-97.114;2023-12-20T14:08:06;9.40;99.90
19622;DHT22;9958;33.196;-97.114;2023-12-20T14:10:34;9.50;99.90
19622;DHT22;9958;33.196;-97.114;2023-12-20T14:13:04;9.50;99.90
19622;DHT22;9958;33.196;-97.114;2023-12-20T14:15:33;9.60;99.90
19622;DHT22;9958;33.196;-97.114;2023-12-20T14:18:04;9.60;99.90
19622;DHT22;9958;33.196;-97.114;2023-12-20T14:20:34;9.70;99.90
19622;DHT22;9958;33.196;-97.114;2023-12-20T14:23:03;9.70;99.90
19622;DHT22;9958;33.196;-97.114;2023-12-20T14:25:31;9.80;99.90
19622;DHT22;9958;33.196;-97.114;2023-12-20T14:27:59;9.80;99.90
19622;DHT22;9958;33.196;-97.114;2023-12-20T14:30:29;9.80;99.90
19622;DHT22;9958;33.196;-97.114;2023-12-20T14:32:58;9.90;99.90
19622;DHT22;9958;33.196;-97.114;2023-12-20T14:35:26;9.90;99.90
19622;DHT22;9958;33.196;-97.114;2023-12-20T14:37:55;9.90;99.90
19622;DHT22;9958;33.196;-97.114;2023-12-20T14:40:23;10.00;99.90
19622;DHT22;9958;33.196;-97.114;2023-12-20T14:42:52;10.00;99.90
19622;DHT22;9958;33.196;-97.114;2023-12-20T14:45:20;10.00;99.90
19622;DHT22;9958;33.196;-97.114;2023-12-20T14:47:50;10.10;99.90
19622;DHT22;9958;33.196;-97.114;2023-12-20T14:50:18;10.10;99.90
19622;DHT22;9958;33.196;-97.114;2023-12-20T14:52:46;10.10;99.90
19622;DHT22;9958;33.196;-97.114;2023-12-20T14:55:15;10.20;99.90
19622;DHT22;9958;33.196;-97.114;2023-12-20T14:57:43;10.20;99.90
19622;DHT22;9958;33.196;-97.114;2023-12-20T15:00:12;10.30;99.90
19622;DHT22;9958;33.196;-97.114;2023-12-20T15:02:42;10.40;99.90
19622;DHT22;9958;33.196;-97.114;2023-12-20T15:05:12;10.40;99.90
19622;DHT22;9958;33.196;-97.114;2023-12-20T15:07:43;10.50;99.90
19622;DHT22;9958;33.196;-97.114;2023-12-20T15:10:11;10.50;99.90
19622;DHT22;9958;33.196;-97.114;2023-12-20T15:12:39;10.60;99.90
19622;DHT22;9958;33.196;-97.114;2023-12-20T15:15:09;10.60;99.90
19622;DHT22;9958;33.196;-97.114;2023-12-20T15:17:37;10.60;99.90
19622;DHT22;9958;33.196;-97.114;2023-12-20T15:20:06;10.70;99.90
19622;DHT22;9958;33.196;-97.114;2023-12-20T15:22:38;10.80;99.90
19622;DHT22;9958;33.196;-97.114;2023-12-20T15:25:08;10.90;99.90
19622;DHT22;9958;33.196;-97.114;2023-12-20T15:27:36;11.00;99.90
19622;DHT22;9958;33.196;-97.114;2023-12-20T15:30:06;11.20;99.90
19622;DHT22;9958;33.196;-97.114;2023-12-20T15:32:35;11.40;99.90
19622;DHT22;9958;33.196;-97.114;2023-12-20T15:35:05;11.50;99.90